createdAt,value
2018-05-21T00:00:12.829Z,98643
2018-05-21T00:02:40.873Z,98638
2018-05-21T00:05:09.281Z,98639
2018-05-21T00:07:37.332Z,98637
2018-05-21T00:10:05.408Z,98636
2018-05-21T00:12:33.701Z,98640
2018-05-21T00:15:01.740Z,98637
2018-05-21T00:17:29.805Z,98635
2018-05-21T00:19:58.297Z,98633
2018-05-21T00:22:26.382Z,98627
2018-05-21T00:24:54.437Z,98624
2018-05-21T00:27:22.817Z,98625
2018-05-21T00:29:50.901Z,98622
2018-05-21T00:32:18.953Z,98623
2018-05-21T00:34:47.021Z,98619
2018-05-21T00:37:16.245Z,98615
2018-05-21T00:39:44.302Z,98612
2018-05-21T00:42:12.781Z,98614
2018-05-21T00:44:40.841Z,98613
2018-05-21T00:47:08.909Z,98607
2018-05-21T00:49:37.401Z,98608
2018-05-21T00:52:05.401Z,98607
2018-05-21T00:54:33.477Z,98604
2018-05-21T00:57:01.560Z,98607
2018-05-21T00:59:29.601Z,98605
2018-05-21T01:01:57.689Z,98609
2018-05-21T01:04:25.750Z,98604
2018-05-21T01:06:53.802Z,98607
2018-05-21T01:09:21.865Z,98604
2018-05-21T01:11:50.281Z,98599
2018-05-21T01:14:18.352Z,98604
2018-05-21T01:16:46.425Z,98599
2018-05-21T01:19:14.801Z,98600
2018-05-21T01:21:42.857Z,98600
2018-05-21T01:24:11.841Z,98597
2018-05-21T01:26:39.937Z,98602
2018-05-21T01:29:07.992Z,98601
2018-05-21T01:31:36.389Z,98600
2018-05-21T01:34:04.474Z,98597
2018-05-21T01:36:32.517Z,98593
2018-05-21T01:39:00.880Z,98584
2018-05-21T01:41:28.941Z,98584
2018-05-21T01:43:57.036Z,98580
2018-05-21T01:46:25.429Z,98582
2018-05-21T01:48:53.484Z,98581
2018-05-21T01:51:21.546Z,98579
2018-05-21T01:53:49.646Z,98577
2018-05-21T01:56:17.696Z,98570
2018-05-21T01:58:45.762Z,98575
2018-05-21T02:01:14.137Z,98574
2018-05-21T02:03:42.221Z,98565
2018-05-21T02:06:10.281Z,98571
2018-05-21T02:08:38.633Z,98563
2018-05-21T02:11:06.641Z,98561
2018-05-21T02:13:34.892Z,98562
2018-05-21T02:16:03.001Z,98559
2018-05-21T02:18:31.044Z,98561
2018-05-21T02:20:59.102Z,98564
2018-05-21T02:23:27.525Z,98566
2018-05-21T02:25:55.785Z,98562
2018-05-21T02:28:23.873Z,98564
2018-05-21T02:30:52.149Z,98566
2018-05-21T02:33:20.233Z,98565
2018-05-21T02:35:48.297Z,98565
2018-05-21T02:38:16.389Z,98564
2018-05-21T02:40:45.237Z,98565
2018-05-21T02:43:13.308Z,98558
2018-05-21T02:45:41.364Z,98555
2018-05-21T02:48:09.449Z,98557
2018-05-21T02:50:37.496Z,98553
2018-05-21T02:53:06.027Z,98554
2018-05-21T02:55:35.687Z,98548
2018-05-21T02:58:03.761Z,98543
2018-05-21T03:00:32.176Z,98545
2018-05-21T03:03:00.351Z,98543
2018-05-21T03:05:28.420Z,98546
2018-05-21T03:07:56.480Z,98545
2018-05-21T03:10:24.564Z,98548
2018-05-21T03:12:52.637Z,98545
2018-05-21T03:15:20.849Z,98550
2018-05-21T03:17:49.672Z,98545
2018-05-21T03:20:17.732Z,98543
2018-05-21T03:22:45.845Z,98542
2018-05-21T03:25:13.917Z,98543
2018-05-21T03:27:42.277Z,98543
2018-05-21T03:30:10.385Z,98549
2018-05-21T03:32:39.244Z,98552
2018-05-21T03:35:07.325Z,98551
2018-05-21T03:37:35.767Z,98551
2018-05-21T03:40:03.841Z,98548
2018-05-21T03:42:31.884Z,98552
2018-05-21T03:45:00.241Z,98553
2018-05-21T03:47:28.280Z,98550
2018-05-21T03:49:56.369Z,98556
2018-05-21T03:52:24.925Z,98560
2018-05-21T03:54:52.984Z,98556
2018-05-21T03:57:21.052Z,98558
2018-05-21T03:59:49.473Z,98554
2018-05-21T04:02:17.517Z,98560
2018-05-21T04:04:45.576Z,98561
2018-05-21T04:07:13.649Z,98558
2018-05-21T04:09:41.745Z,98559
2018-05-21T04:12:09.813Z,98560
2018-05-21T04:14:37.905Z,98554
2018-05-21T04:17:06.034Z,98556
2018-05-21T04:19:34.109Z,98557
2018-05-21T04:22:02.600Z,98551
2018-05-21T04:24:30.658Z,98556
2018-05-21T04:26:58.733Z,98551
2018-05-21T04:29:26.902Z,98546
2018-05-21T04:31:55.908Z,98551
2018-05-21T04:34:23.993Z,98549
2018-05-21T04:36:52.081Z,98547
2018-05-21T04:39:20.461Z,98545
2018-05-21T04:41:48.500Z,98543
2018-05-21T04:44:16.569Z,98545
2018-05-21T04:46:44.677Z,98541
2018-05-21T04:49:12.745Z,98539
2018-05-21T04:51:40.817Z,98541
2018-05-21T04:54:10.601Z,98534
2018-05-21T04:56:38.660Z,98531
2018-05-21T04:59:06.728Z,98532
2018-05-21T05:01:34.841Z,98533
2018-05-21T05:04:02.887Z,98531
2018-05-21T05:06:30.949Z,98529
2018-05-21T05:08:59.030Z,98526
2018-05-21T05:11:27.933Z,98531
2018-05-21T05:13:56.701Z,98532
2018-05-21T05:16:24.788Z,98535
2018-05-21T05:18:52.878Z,98534
2018-05-21T05:21:21.869Z,98540
2018-05-21T05:23:49.941Z,98538
2018-05-21T05:26:18.013Z,98538
2018-05-21T05:28:46.393Z,98536
2018-05-21T05:31:15.561Z,98535
2018-05-21T05:33:44.461Z,98533
2018-05-21T05:36:12.565Z,98535
2018-05-21T05:38:40.605Z,98535
2018-05-21T05:41:08.972Z,98529
2018-05-21T05:43:37.060Z,98530
2018-05-21T05:46:05.116Z,98529
2018-05-21T05:48:34.445Z,98528
2018-05-21T05:51:02.517Z,98528
2018-05-21T05:53:30.568Z,98528
2018-05-21T05:55:59.817Z,98526
2018-05-21T05:58:28.663Z,98524
2018-05-21T06:00:56.764Z,98515
2018-05-21T06:03:25.124Z,98521
2018-05-21T06:05:53.202Z,98515
2018-05-21T06:08:21.281Z,98518
2018-05-21T06:10:49.754Z,98513
2018-05-21T06:13:17.810Z,98513
2018-05-21T06:15:45.876Z,98512
2018-05-21T06:18:14.169Z,98509
2018-05-21T06:20:42.220Z,98506
2018-05-21T06:23:10.280Z,98507
2018-05-21T06:25:38.692Z,98508
2018-05-21T06:28:06.746Z,98508
2018-05-21T06:30:34.802Z,98502
2018-05-21T06:33:02.901Z,98506
2018-05-21T06:35:31.104Z,98509
2018-05-21T06:37:59.956Z,98507
2018-05-21T06:40:28.416Z,98501
2018-05-21T06:42:56.481Z,98499
2018-05-21T06:45:24.551Z,98498
2018-05-21T06:47:52.940Z,98502
2018-05-21T06:50:21.024Z,98502
2018-05-21T06:52:49.113Z,98500
2018-05-21T06:55:17.460Z,98493
2018-05-21T06:57:45.544Z,98490
2018-05-21T07:00:13.633Z,98482
2018-05-21T07:02:41.987Z,98485
2018-05-21T07:05:10.044Z,98481
2018-05-21T07:07:38.112Z,98489
2018-05-21T07:10:06.213Z,98485
2018-05-21T07:12:34.708Z,98483
2018-05-21T07:15:02.748Z,98483
2018-05-21T07:17:30.852Z,98472
2018-05-21T07:19:58.921Z,98470
2018-05-21T07:22:27.700Z,98463
2018-05-21T07:24:55.780Z,98463
2018-05-21T07:27:23.853Z,98459
2018-05-21T07:29:51.937Z,98459
2018-05-21T07:32:20.009Z,98450
2018-05-21T07:34:48.049Z,98447
2018-05-21T07:37:16.153Z,98436
2018-05-21T07:39:44.192Z,98437
2018-05-21T07:42:12.297Z,98439
2018-05-21T07:44:40.832Z,98441
2018-05-21T07:47:09.009Z,98444
2018-05-21T07:49:37.005Z,98442
2018-05-21T07:52:05.384Z,98453
2018-05-21T07:54:33.429Z,98448
2018-05-21T07:57:01.492Z,98450
2018-05-21T07:59:29.905Z,98446
2018-05-21T08:01:57.960Z,98453
2018-05-21T08:04:26.051Z,98454
2018-05-21T08:06:54.605Z,98440
2018-05-21T08:09:22.691Z,98442
2018-05-21T08:11:51.430Z,98437
2018-05-21T08:14:19.500Z,98432
2018-05-21T08:16:47.549Z,98433
2018-05-21T08:19:15.909Z,98437
2018-05-21T08:21:43.980Z,98428
2018-05-21T08:24:12.949Z,98420
2018-05-21T08:26:41.020Z,98431
2018-05-21T08:29:09.100Z,98430
2018-05-21T08:31:37.173Z,98422
2018-05-21T08:34:05.278Z,98422
2018-05-21T08:36:33.349Z,98420
2018-05-21T08:39:01.709Z,98418
2018-05-21T08:41:29.781Z,98414
2018-05-21T08:43:58.744Z,98408
2018-05-21T08:46:26.829Z,98406
2018-05-21T08:48:54.892Z,98393
2018-05-21T08:51:23.584Z,98396
2018-05-21T08:53:51.673Z,98389
2018-05-21T08:56:19.745Z,98390
2018-05-21T08:58:48.676Z,98394
2018-05-21T09:01:16.724Z,98392
2018-05-21T09:03:44.795Z,98391
2018-05-21T09:06:13.116Z,98387
2018-05-21T09:08:41.193Z,98383
2018-05-21T09:11:10.633Z,98380
2018-05-21T09:13:38.684Z,98378
2018-05-21T09:16:06.744Z,98368
2018-05-21T09:18:35.153Z,98366
2018-05-21T09:21:03.228Z,98368
2018-05-21T09:23:31.297Z,98364
2018-05-21T09:25:59.450Z,98359
2018-05-21T09:28:27.437Z,98368
2018-05-21T09:30:55.508Z,98363
2018-05-21T09:33:23.757Z,98355
2018-05-21T09:35:52.752Z,98350
2018-05-21T09:38:20.812Z,98345
2018-05-21T09:40:48.905Z,98341
2018-05-21T09:43:17.301Z,98339
2018-05-21T09:45:45.373Z,98349
2018-05-21T09:48:13.485Z,98337
2018-05-21T09:50:41.792Z,98346
2018-05-21T09:53:09.877Z,98339
2018-05-21T09:55:38.053Z,98341
2018-05-21T09:58:06.633Z,98331
2018-05-21T10:00:34.723Z,98329
2018-05-21T10:03:02.793Z,98327
2018-05-21T10:05:31.793Z,98322
2018-05-21T10:07:59.840Z,98318
2018-05-21T10:10:27.900Z,98312
2018-05-21T10:12:56.310Z,98318
2018-05-21T10:15:24.381Z,98317
2018-05-21T10:17:53.188Z,98315
2018-05-21T10:20:22.336Z,98311
2018-05-21T10:22:50.411Z,98319
2018-05-21T10:25:18.493Z,98327
2018-05-21T10:27:46.609Z,98314
2018-05-21T10:30:15.495Z,98321
2018-05-21T10:32:43.557Z,98323
2018-05-21T10:35:11.892Z,98317
2018-05-21T10:37:39.977Z,98307
2018-05-21T10:40:08.033Z,98312
2018-05-21T10:42:36.413Z,98318
2018-05-21T10:45:04.497Z,98314
2018-05-21T10:47:32.557Z,98295
2018-05-21T10:50:00.865Z,98292
2018-05-21T10:52:28.913Z,98291
2018-05-21T10:54:56.976Z,98294
2018-05-21T10:57:25.381Z,98273
2018-05-21T10:59:53.425Z,98286
2018-05-21T11:02:21.487Z,98303
2018-05-21T11:04:49.597Z,98286
2018-05-21T11:07:17.674Z,98286
2018-05-21T11:09:45.737Z,98282
2018-05-21T11:12:14.168Z,98272
2018-05-21T11:14:42.206Z,98279
2018-05-21T11:17:10.272Z,98282
2018-05-21T11:19:38.817Z,98263
2018-05-21T11:22:06.900Z,98274
2018-05-21T11:24:35.043Z,98277
2018-05-21T11:27:03.058Z,98275
2018-05-21T11:29:31.118Z,98278
2018-05-21T11:31:59.224Z,98264
2018-05-21T11:34:27.785Z,98259
2018-05-21T11:36:55.853Z,98253
2018-05-21T11:39:23.925Z,98257
2018-05-21T11:41:51.989Z,98256
2018-05-21T11:44:20.068Z,98252
2018-05-21T11:46:48.109Z,98246
2018-05-21T11:49:16.192Z,98254
2018-05-21T11:51:44.280Z,98249
2018-05-21T11:54:12.353Z,98252
2018-05-21T11:56:40.816Z,98247
2018-05-21T11:59:08.904Z,98246
2018-05-21T12:01:36.985Z,98255
2018-05-21T12:04:05.357Z,98246
2018-05-21T12:06:33.409Z,98238
2018-05-21T12:09:01.845Z,98241
2018-05-21T12:11:29.943Z,98215
2018-05-21T12:13:58.017Z,98246
2018-05-21T12:16:26.084Z,98240
2018-05-21T12:18:54.193Z,98223
2018-05-21T12:21:22.267Z,98231
2018-05-21T12:23:50.337Z,98217
2018-05-21T12:26:19.950Z,98219
2018-05-21T12:28:49.549Z,98222
2018-05-21T12:31:17.624Z,98227
2018-05-21T12:33:45.679Z,98236
2018-05-21T12:36:13.737Z,98231
2018-05-21T12:38:41.824Z,98228
2018-05-21T12:41:10.288Z,98237
2018-05-21T12:43:38.444Z,98231
2018-05-21T12:46:06.473Z,98226
2018-05-21T12:48:34.517Z,98219
2018-05-21T12:51:02.606Z,98223
2018-05-21T12:53:30.656Z,98217
2018-05-21T12:55:59.464Z,98212
2018-05-21T12:58:27.537Z,98218
2018-05-21T13:00:55.604Z,98211
2018-05-21T13:03:23.701Z,98214
2018-05-21T13:05:52.556Z,98211
2018-05-21T13:08:20.641Z,98211
2018-05-21T13:10:48.737Z,98209
2018-05-21T13:13:17.569Z,98208
2018-05-21T13:15:45.631Z,98199
2018-05-21T13:18:13.921Z,98215
2018-05-21T13:20:41.985Z,98215
2018-05-21T13:23:10.080Z,98204
2018-05-21T13:25:38.360Z,98201
2018-05-21T13:28:06.487Z,98196
2018-05-21T13:30:34.512Z,98193
2018-05-21T13:33:02.893Z,98197
2018-05-21T13:35:30.964Z,98191
2018-05-21T13:37:59.033Z,98191
2018-05-21T13:40:27.122Z,98182
2018-05-21T13:42:56.685Z,98171
2018-05-21T13:45:24.947Z,98166
2018-05-21T13:47:53.337Z,98181
2018-05-21T13:50:21.421Z,98175
2018-05-21T13:52:49.510Z,98169
2018-05-21T13:55:17.569Z,98175
2018-05-21T13:57:45.841Z,98173
2018-05-21T14:00:13.901Z,98166
2018-05-21T14:02:42.513Z,98164
2018-05-21T14:05:10.556Z,98159
2018-05-21T14:07:38.616Z,98159
2018-05-21T14:10:07.049Z,98169
2018-05-21T14:12:35.198Z,98162
2018-05-21T14:15:03.980Z,98175
2018-05-21T14:17:32.081Z,98158
2018-05-21T14:20:00.152Z,98148
2018-05-21T14:22:28.193Z,98140
2018-05-21T14:24:56.547Z,98148
2018-05-21T14:27:25.565Z,98145
2018-05-21T14:29:53.679Z,98149
2018-05-21T14:32:21.681Z,98139
2018-05-21T14:34:50.101Z,98140
2018-05-21T14:37:18.144Z,98140
2018-05-21T14:39:46.229Z,98139
2018-05-21T14:42:14.332Z,98148
2018-05-21T14:44:42.400Z,98143
2018-05-21T14:47:10.473Z,98141
2018-05-21T14:49:39.016Z,98139
2018-05-21T14:52:07.301Z,98144
2018-05-21T14:54:35.361Z,98140
2018-05-21T14:57:03.768Z,98138
2018-05-21T14:59:31.824Z,98136
2018-05-21T15:01:59.998Z,98122
2018-05-21T15:04:28.291Z,98126
2018-05-21T15:06:56.361Z,98124
2018-05-21T15:09:24.433Z,98122
2018-05-21T15:11:53.117Z,98121
2018-05-21T15:14:21.161Z,98127
2018-05-21T15:16:49.277Z,98121
2018-05-21T15:19:18.461Z,98119
2018-05-21T15:21:46.528Z,98109
2018-05-21T15:24:14.606Z,98125
2018-05-21T15:26:42.689Z,98127
2018-05-21T15:29:11.753Z,98123
2018-05-21T15:31:39.809Z,98126
2018-05-21T15:34:08.386Z,98128
2018-05-21T15:36:36.481Z,98113
2018-05-21T15:39:04.564Z,98116
2018-05-21T15:41:32.945Z,98111
2018-05-21T15:44:00.990Z,98114
2018-05-21T15:46:29.074Z,98113
2018-05-21T15:48:57.979Z,98106
2018-05-21T15:51:26.048Z,98108
2018-05-21T15:53:54.903Z,98109
2018-05-21T15:56:23.022Z,98102
2018-05-21T15:58:51.100Z,98104
2018-05-21T16:01:19.171Z,98102
2018-05-21T16:03:47.541Z,98104
2018-05-21T16:06:15.622Z,98106
2018-05-21T16:08:43.756Z,98101
2018-05-21T16:11:12.229Z,98106
2018-05-21T16:13:40.313Z,98098
2018-05-21T16:16:08.405Z,98097
2018-05-21T16:18:36.469Z,98095
2018-05-21T16:21:04.529Z,98098
2018-05-21T16:23:32.589Z,98095
2018-05-21T16:26:00.965Z,98091
2018-05-21T16:28:29.029Z,98091
2018-05-21T16:30:57.130Z,98093
2018-05-21T16:33:26.208Z,98093
2018-05-21T16:35:54.265Z,98100
2018-05-21T16:38:22.421Z,98101
2018-05-21T16:40:51.061Z,98097
2018-05-21T16:43:19.133Z,98102
2018-05-21T16:45:47.176Z,98104
2018-05-21T16:48:15.256Z,98104
2018-05-21T16:50:43.537Z,98104
2018-05-21T16:53:11.593Z,98101
2018-05-21T16:55:39.901Z,98097
2018-05-21T16:58:07.940Z,98094
2018-05-21T17:00:36.026Z,98095
2018-05-21T17:03:04.492Z,98102
2018-05-21T17:05:32.552Z,98106
2018-05-21T17:08:01.208Z,98104
2018-05-21T17:10:29.264Z,98103
2018-05-21T17:12:57.307Z,98110
2018-05-21T17:15:25.669Z,98111
2018-05-21T17:17:53.757Z,98112
2018-05-21T17:20:21.923Z,98111
2018-05-21T17:22:49.916Z,98113
2018-05-21T17:25:17.964Z,98115
2018-05-21T17:27:46.025Z,98108
2018-05-21T17:30:14.406Z,98107
2018-05-21T17:32:42.597Z,98110
2018-05-21T17:35:10.676Z,98114
2018-05-21T17:37:38.770Z,98117
2018-05-21T17:40:07.599Z,98118
2018-05-21T17:42:35.670Z,98124
2018-05-21T17:45:03.753Z,98126
2018-05-21T17:47:31.817Z,98129
2018-05-21T17:49:59.912Z,98127
2018-05-21T17:52:28.307Z,98126
2018-05-21T17:54:57.874Z,98122
2018-05-21T17:57:25.957Z,98125
2018-05-21T17:59:54.038Z,98127
2018-05-21T18:02:22.096Z,98131
2018-05-21T18:04:50.185Z,98128
2018-05-21T18:07:18.548Z,98134
2018-05-21T18:09:46.788Z,98132
2018-05-21T18:12:14.885Z,98130
2018-05-21T18:14:43.122Z,98130
2018-05-21T18:17:11.973Z,98132
2018-05-21T18:19:40.061Z,98129
2018-05-21T18:22:08.503Z,98127
2018-05-21T18:24:36.574Z,98128
2018-05-21T18:27:04.620Z,98126
2018-05-21T18:29:33.061Z,98119
2018-05-21T18:32:01.134Z,98124
2018-05-21T18:34:29.368Z,98124
2018-05-21T18:36:57.481Z,98125
2018-05-21T18:39:25.529Z,98125
2018-05-21T18:41:53.609Z,98132
2018-05-21T18:44:21.669Z,98134
2018-05-21T18:46:49.733Z,98131
2018-05-21T18:49:17.796Z,98138
2018-05-21T18:51:46.177Z,98141
2018-05-21T18:54:14.251Z,98143
2018-05-21T18:56:42.296Z,98150
2018-05-21T18:59:10.724Z,98145
2018-05-21T19:01:38.784Z,98147
2018-05-21T19:04:06.865Z,98145
2018-05-21T19:06:35.246Z,98148
2018-05-21T19:09:03.313Z,98148
2018-05-21T19:11:31.521Z,98151
2018-05-21T19:13:59.584Z,98154
2018-05-21T19:16:27.667Z,98154
2018-05-21T19:18:56.522Z,98152
2018-05-21T19:21:25.024Z,98152
2018-05-21T19:23:53.090Z,98149
2018-05-21T19:26:21.137Z,98155
2018-05-21T19:28:49.512Z,98167
2018-05-21T19:31:17.572Z,98166
2018-05-21T19:33:45.673Z,98165
2018-05-21T19:36:13.828Z,98168
2018-05-21T19:38:41.912Z,98174
2018-05-21T19:41:09.977Z,98176
2018-05-21T19:43:38.477Z,98175
2018-05-21T19:46:06.553Z,98173
2018-05-21T19:48:34.624Z,98178
2018-05-21T19:51:03.001Z,98179
2018-05-21T19:53:31.077Z,98175
2018-05-21T19:55:59.118Z,98175
2018-05-21T19:58:27.498Z,98179
2018-05-21T20:00:55.556Z,98183
2018-05-21T20:03:23.649Z,98186
2018-05-21T20:05:52.120Z,98182
2018-05-21T20:08:20.214Z,98181
2018-05-21T20:10:48.260Z,98182
2018-05-21T20:13:16.773Z,98181
2018-05-21T20:15:44.861Z,98185
2018-05-21T20:18:12.896Z,98182
2018-05-21T20:20:40.969Z,98184
2018-05-21T20:23:09.028Z,98183
2018-05-21T20:25:37.117Z,98185
2018-05-21T20:28:05.477Z,98190
2018-05-21T20:30:33.561Z,98188
2018-05-21T20:33:01.622Z,98192
2018-05-21T20:35:29.722Z,98192
2018-05-21T20:37:57.779Z,98196
2018-05-21T20:40:25.836Z,98193
2018-05-21T20:42:54.228Z,98194
2018-05-21T20:45:22.379Z,98195
2018-05-21T20:47:50.344Z,98193
2018-05-21T20:50:18.572Z,98196
2018-05-21T20:52:46.645Z,98197
2018-05-21T20:55:14.684Z,98200
2018-05-21T20:57:43.049Z,98201
2018-05-21T21:00:11.137Z,98202
2018-05-21T21:02:39.309Z,98207
2018-05-21T21:05:07.673Z,98209
2018-05-21T21:07:35.769Z,98213
2018-05-21T21:10:03.850Z,98207
2018-05-21T21:12:31.925Z,98210
2018-05-21T21:15:00.049Z,98202
2018-05-21T21:17:28.120Z,98206
2018-05-21T21:19:56.205Z,98206
2018-05-21T21:22:24.289Z,98212
2018-05-21T21:24:52.348Z,98208
2018-05-21T21:27:20.854Z,98210
2018-05-21T21:29:48.900Z,98212
2018-05-21T21:32:16.960Z,98211
2018-05-21T21:34:45.072Z,98209
2018-05-21T21:37:13.148Z,98205
2018-05-21T21:39:41.197Z,98202
2018-05-21T21:42:09.527Z,98205
2018-05-21T21:44:38.429Z,98203
2018-05-21T21:47:06.428Z,98203
2018-05-21T21:49:34.811Z,98197
2018-05-21T21:52:02.865Z,98198
2018-05-21T21:54:30.936Z,98197
2018-05-21T21:56:59.221Z,98188
2018-05-21T21:59:27.304Z,98187
2018-05-21T22:01:55.364Z,98185
2018-05-21T22:04:23.437Z,98185
2018-05-21T22:06:51.525Z,98188
2018-05-21T22:09:19.581Z,98186
2018-05-21T22:11:47.985Z,98190
2018-05-21T22:14:16.062Z,98186
2018-05-21T22:16:44.196Z,98182
2018-05-21T22:19:12.273Z,98177
2018-05-21T22:21:40.356Z,98180
2018-05-21T22:24:08.417Z,98178
2018-05-21T22:26:36.517Z,98174
2018-05-21T22:29:04.601Z,98172
2018-05-21T22:31:32.656Z,98176
2018-05-21T22:34:00.744Z,98178
2018-05-21T22:36:28.787Z,98169
2018-05-21T22:38:56.845Z,98172
2018-05-21T22:41:24.928Z,98169
2018-05-21T22:43:53.030Z,98171
2018-05-21T22:46:21.101Z,98168
2018-05-21T22:48:49.189Z,98167
2018-05-21T22:51:18.009Z,98160
2018-05-21T22:53:46.104Z,98157
2018-05-21T22:56:14.209Z,98153
2018-05-21T22:58:42.244Z,98160
2018-05-21T23:01:10.305Z,98160
2018-05-21T23:03:38.609Z,98160
2018-05-21T23:06:06.770Z,98155
2018-05-21T23:08:34.857Z,98156
2018-05-21T23:11:02.949Z,98161
2018-05-21T23:13:31.801Z,98167
2018-05-21T23:15:59.909Z,98171
2018-05-21T23:18:28.856Z,98168
2018-05-21T23:20:56.937Z,98168
2018-05-21T23:23:25.041Z,98170
2018-05-21T23:25:53.317Z,98172
2018-05-21T23:28:21.356Z,98171
2018-05-21T23:30:49.413Z,98174
2018-05-21T23:33:17.517Z,98180
2018-05-21T23:35:45.585Z,98173
2018-05-21T23:38:13.656Z,98170
2018-05-21T23:40:41.748Z,98172
2018-05-21T23:43:10.577Z,98172
2018-05-21T23:45:38.665Z,98169
2018-05-21T23:48:06.748Z,98163
2018-05-21T23:50:34.804Z,98159
2018-05-21T23:53:02.893Z,98161
2018-05-21T23:55:31.285Z,98155
2018-05-21T23:57:59.357Z,98154
